Flight Track Log - Related Links

Times and Time Zones

All times are in EDT time to prevent confusion due to time zone crossing. See the N368CS flight status page for this flight to view local times or setup timezone preferences in your user account.

Time Position Orientation Groundspeed Altitude Reporting Facility
EDT Latitude Longitude Course Direction KTS MPH feet Rate Location/Type
Wed 12:33:31 PM 34.1728 -118.4856 75° East 204 235 25,000  Level Los Angeles Center
Wed 12:34:34 PM 34.1850 -118.4322 75° East 235 270 6,200 -7,632 Descending Los Angeles Center
Wed 12:35:36 PM 34.2528 -118.4417 353° North 249 287 9,100 1,403 Climbing Los Angeles Center
Wed 12:36:38 PM 34.3314 -118.4500 355° North 274 315 9,100 1,742 Level Los Angeles Center
Wed 12:37:40 PM 34.4056 -118.4578 355° North 269 310 12,700 3,097 Climbing Los Angeles Center
Wed 12:38:42 PM 34.4697 -118.3889 42° Northeast 320 368 15,500 2,516 Climbing Los Angeles Center
Wed 12:39:44 PM 34.4922 -118.2875 75° East 324 373 17,900 2,177 Climbing Los Angeles Center
Wed 12:40:46 PM 34.5494 -118.1956 53° Northeast 339 390 20,000 1,016 Climbing Los Angeles Center
Wed 12:41:48 PM 34.6189 -118.0783 54° Northeast 391 450 20,000  Level Los Angeles Center
Wed 12:42:51 PM 34.6458 -117.9364 77° East 431 496 20,000 768 Level Los Angeles Center
Wed 12:43:53 PM 34.6608 -117.7917 83° East 435 501 21,600 1,742 Climbing Los Angeles Center
Wed 12:44:55 PM 34.6900 -117.6603 75° East 413 475 23,600 1,645 Climbing Los Angeles Center
Wed 12:45:57 PM 34.7233 -117.5306 73° East 407 468 25,000 677 Climbing Los Angeles Center
Wed 12:46:59 PM 34.7644 -117.3683 73° East 424 488 25,000  Level Los Angeles Center
Wed 12:48:01 PM 34.7972 -117.2383 73° East 410 472 25,000  Level Los Angeles Center
Wed 12:49:03 PM 34.8306 -117.1053 73° East 413 475 25,000  Level Los Angeles Center
Wed 12:50:06 PM 34.8633 -116.9708 73° East 418 481 25,000  Level Los Angeles Center
Wed 12:51:08 PM 34.9067 -116.8411 68° East 420 483 25,000  Level Los Angeles Center
Wed 12:52:10 PM 34.9706 -116.6986 61° Northeast 403 464 25,000  Level Los Angeles Center
Wed 12:53:12 PM 35.0256 -116.5750 61° Northeast 412 474 25,000 -48 Level Los Angeles Center
Wed 12:54:14 PM 35.0800 -116.4528 61° Northeast 413 475 24,900 -726 Descending Los Angeles Center
Wed 12:55:16 PM 35.1467 -116.3478 52° Northeast 397 457 23,500 -1,500 Descending Los Angeles Center
Wed 12:56:18 PM 35.2153 -116.2583 47° Northeast 369 425 21,800 -1,597 Descending Los Angeles Center
Wed 12:57:20 PM 35.3008 -116.1528 45° Northeast 364 419 20,200 -1,440 Descending Los Angeles Center
Wed 12:58:23 PM 35.3722 -116.0631 46° Northeast 368 423 18,800 -1,200 Descending Los Angeles Center
Wed 12:59:25 PM 35.4419 -115.9756 46° Northeast 361 415 17,700 -1,161 Descending Los Angeles Center
Wed 01:00:27 PM 35.5072 -115.8925 46° Northeast 344 396 16,400 -1,306 Descending Los Angeles Center
Wed 01:01:29 PM 35.5828 -115.7944 47° Northeast 334 384 15,000 -1,425 Descending Los Angeles Center
Wed 01:01:47 PM 35.6064 -115.7739 35° Northeast 333 383 14,500 -1,452 Descending Los Angeles Center
Wed 01:02:31 PM 35.6467 -115.7136 51° Northeast 332 382 13,500 -1,300 Descending Los Angeles Center
Wed 01:02:47 PM 35.6669 -115.6936 39° Northeast 324 373 13,200 -692 Descending Los Angeles Center
Wed 01:03:49 PM 35.6961 -115.6078 67° East 298 343 12,600 -833 Descending Los Angeles Center
Wed 01:04:35 PM 35.6875 -115.5372 99° East 288 331 11,700 -1,309 Descending Los Angeles Center
Wed 01:04:44 PM 35.6881 -115.5203 88° East 287 330 11,400 -1,238 Descending Los Angeles Center
Wed 01:05:38 PM 35.6814 -115.4431 96° East 281 323 10,400 -1,574 Descending Los Angeles Center
Wed 01:05:45 PM 35.6800 -115.4225 95° East 283 326 9,800 -2,323 Descending Los Angeles Center
Wed 01:06:40 PM 35.6997 -115.3633 68° East 268 308 8,000 -1,770 Descending Los Angeles Center
Wed 01:06:46 PM 35.7150 -115.3556 22° Northeast 259 298 8,000  Level Los Angeles Center
Wed 01:07:42 PM 35.7786 -115.3264 20° North 249 287 8,000  Level Los Angeles Center
Wed 01:07:47 PM 35.7847 -115.3275 352° North 253 291 8,000 -900 Level Los Angeles Center
Wed 01:08:42 PM 35.8419 -115.3033 19° North 233 268 7,100 -947 Descending Los Angeles Center
Wed 01:08:44 PM 35.8431 -115.3033 360° North 240 276 7,100 -94 Level Los Angeles Center
Wed 01:09:46 PM 35.8889 -115.2761 26° Northeast 178 205 7,000 -484 Descending Los Angeles Center
Wed 01:10:48 PM 35.9403 -115.2472 24° Northeast 187 215 6,100 -844 Descending Los Angeles Center
Wed 01:10:50 PM 35.9400 -115.2475 219° Southwest 208 239 6,100 -1,548 Level Los Angeles Center
Wed 01:11:50 PM 35.9833 -115.2250 23° Northeast 165 190 4,500 -1,230 Descending Los Angeles Center
Wed 01:12:52 PM 36.0189 -115.2031 27° Northeast 136 157 3,600 -829 Descending Los Angeles Center
Wed 01:13:53 PM 36.0494 -115.1850 26° Northeast 128 147 2,800 -762 Descending Los Angeles Center
Wed 01:13:55 PM 36.0503 -115.1839 47° Northeast 127 146 2,800 -656 Level Los Angeles Center
Wed 01:14:57 PM 36.0808 -115.1667 24° Northeast 114 131 2,100 -677 Descending Los Angeles Center
Wed 01:16:00 PM 36.0801 -115.1523 90° East  Level Estimated
Wed 01:23:00 PM 36.0801 -115.1523 270° West  Level Estimated

Login

Don't have an account? Register now (free) for customized features, flight alerts, and more!